Time;durP1;ratioP1;P1;durP2;ratioP2;P2;SDS_P1;SDS_P2;PMS_P1;PMS_P2;Temp;Humidity;BMP_temperature;BMP_pressure;BME280_temperature;BME280_humidity;BME280_pressure;Samples;Min_cycle;Max_cycle;Signal;HPM_P1;HPM_P2
2023/10/21 00:02:18;;;;;;;48.00;30.50;;;;;;;12.41;100.00;97913.74;129949;1269;114782;-59
2023/10/21 00:05:21;;;;;;;46.30;29.50;;;;;;;12.37;100.00;97925.74;129594;1273;114892;-59
2023/10/21 00:08:23;;;;;;;42.40;28.50;;;;;;;12.33;100.00;97930.58;129877;1261;114930;-58
2023/10/21 00:11:26;;;;;;;41.60;29.60;;;;;;;12.28;100.00;97932.61;129714;1263;114768;-58
2023/10/21 00:14:28;;;;;;;44.50;28.00;;;;;;;12.26;100.00;97948.94;129934;1269;114709;-59
2023/10/21 00:17:30;;;;;;;44.50;27.80;;;;;;;12.24;100.00;97958.65;129516;1274;128600;-64
2023/10/21 00:20:32;;;;;;;44.50;29.60;;;;;;;12.23;100.00;97955.17;129959;1270;114861;-58
2023/10/21 00:23:34;;;;;;;42.30;28.60;;;;;;;12.21;100.00;97947.65;129961;1260;114791;-58
2023/10/21 00:26:49;;;;;;;40.70;28.00;;;;;;;12.15;100.00;97932.75;130115;1257;114807;-58
2023/10/21 00:29:52;;;;;;;37.50;27.40;;;;;;;12.12;100.00;97937.54;129708;1261;115531;-59
2023/10/21 00:32:55;;;;;;;45.10;28.80;;;;;;;12.09;100.00;97926.24;129894;1263;114707;-58
2023/10/21 00:35:57;;;;;;;41.40;28.00;;;;;;;12.05;100.00;97924.08;129661;1273;114850;-58
2023/10/21 00:38:59;;;;;;;43.10;27.70;;;;;;;12.01;100.00;97925.35;129626;1278;114782;-59
2023/10/21 00:42:02;;;;;;;42.90;27.70;;;;;;;11.96;100.00;97927.71;129676;1261;115349;-58
2023/10/21 00:45:05;;;;;;;43.40;28.50;;;;;;;11.93;100.00;97924.77;129517;1274;114850;-58
2023/10/21 00:48:07;;;;;;;43.40;27.80;;;;;;;11.90;100.00;97926.66;129937;1260;116408;-58
2023/10/21 00:51:09;;;;;;;43.80;28.20;;;;;;;11.89;100.00;97933.95;129892;1263;114779;-59
2023/10/21 00:54:12;;;;;;;38.50;27.00;;;;;;;11.87;100.00;97943.77;129914;1271;114655;-58
2023/10/21 00:57:14;;;;;;;39.20;26.70;;;;;;;11.83;100.00;97950.91;129829;1278;128956;-59
2023/10/21 01:00:17;;;;;;;39.70;27.40;;;;;;;11.81;100.00;97954.68;129929;1260;114738;-60
2023/10/21 01:03:22;;;;;;;50.60;29.20;;;;;;;11.82;100.00;97965.28;129892;1260;115212;-59
2023/10/21 01:06:24;;;;;;;46.90;28.80;;;;;;;11.80;100.00;97972.31;129432;1264;115576;-59
2023/10/21 01:09:27;;;;;;;44.20;27.70;;;;;;;11.78;100.00;97971.58;129424;1264;114718;-60
2023/10/21 01:12:30;;;;;;;46.60;29.40;;;;;;;11.78;100.00;97972.84;129480;1263;114834;-59
2023/10/21 01:15:32;;;;;;;37.90;27.30;;;;;;;11.78;100.00;97980.20;129610;1272;114824;-60
2023/10/21 01:18:39;;;;;;;41.90;28.10;;;;;;;11.78;100.00;97990.75;129217;1283;115316;-58
2023/10/21 01:21:42;;;;;;;50.10;31.80;;;;;;;11.78;100.00;98012.71;129444;1266;114985;-59
2023/10/21 01:24:44;;;;;;;53.00;31.60;;;;;;;11.77;100.00;98025.56;129823;1264;115396;-58
2023/10/21 01:27:47;;;;;;;55.50;32.80;;;;;;;11.75;100.00;98023.16;130010;1278;114839;-64
2023/10/21 01:30:49;;;;;;;61.40;34.50;;;;;;;11.75;100.00;98033.92;129957;1270;114849;-63
2023/10/21 01:33:51;;;;;;;56.10;32.50;;;;;;;11.74;100.00;98049.29;129495;1266;128531;-65
2023/10/21 01:36:53;;;;;;;57.80;32.10;;;;;;;11.72;100.00;98044.79;129858;1261;115926;-61
2023/10/21 01:39:56;;;;;;;53.00;32.90;;;;;;;11.70;100.00;98042.25;129781;1274;114686;-63
2023/10/21 01:42:58;;;;;;;49.70;31.20;;;;;;;11.71;100.00;98041.83;129910;1258;114715;-63
2023/10/21 01:46:05;;;;;;;52.10;31.30;;;;;;;11.70;100.00;98042.41;129829;1261;115322;-61
2023/10/21 01:49:07;;;;;;;53.20;32.70;;;;;;;11.70;100.00;98046.67;129563;1278;115045;-61
2023/10/21 01:52:11;;;;;;;46.30;30.50;;;;;;;11.70;100.00;98055.30;129738;1261;115173;-63
2023/10/21 01:55:13;;;;;;;47.20;30.00;;;;;;;11.69;100.00;98054.70;129975;1260;114811;-63
2023/10/21 01:58:15;;;;;;;50.90;30.50;;;;;;;11.67;100.00;98047.65;129817;1278;114776;-62
2023/10/21 02:01:17;;;;;;;49.10;30.10;;;;;;;11.66;100.00;98060.67;129897;1261;114728;-60
2023/10/21 02:04:19;;;;;;;41.30;28.40;;;;;;;11.64;100.00;98071.58;129976;1268;114749;-59
2023/10/21 02:07:21;;;;;;;47.70;28.00;;;;;;;11.62;100.00;98070.69;129904;1278;114950;-59
2023/10/21 02:10:23;;;;;;;48.20;29.40;;;;;;;11.59;100.00;98065.17;129642;1278;114709;-63
2023/10/21 02:13:26;;;;;;;49.40;29.60;;;;;;;11.58;100.00;98064.83;130014;1261;115106;-63
2023/10/21 02:16:28;;;;;;;53.20;30.80;;;;;;;11.57;100.00;98063.63;129875;1260;114825;-63
2023/10/21 02:19:31;;;;;;;57.40;30.70;;;;;;;11.55;100.00;98076.30;130126;1260;114693;-64
2023/10/21 02:22:33;;;;;;;55.10;32.30;;;;;;;11.54;100.00;98093.90;129662;1260;115160;-63
2023/10/21 02:25:35;;;;;;;48.80;29.60;;;;;;;11.53;100.00;98104.17;129719;1261;114776;-59
2023/10/21 02:28:37;;;;;;;55.80;30.50;;;;;;;11.52;100.00;98110.02;130020;1260;114741;-57
2023/10/21 02:31:40;;;;;;;55.90;29.70;;;;;;;11.51;100.00;98108.67;129991;1270;114689;-64
2023/10/21 02:34:42;;;;;;;54.60;28.30;;;;;;;11.49;100.00;98110.91;130110;1272;114811;-64
2023/10/21 02:37:45;;;;;;;53.00;28.60;;;;;;;11.49;100.00;98106.00;129920;1278;114728;-62
2023/10/21 02:40:47;;;;;;;54.50;30.80;;;;;;;11.46;100.00;98099.09;129984;1260;115237;-62
2023/10/21 02:43:49;;;;;;;52.70;29.80;;;;;;;11.44;100.00;98104.09;129491;1278;114825;-63
2023/10/21 02:46:51;;;;;;;47.60;28.90;;;;;;;11.43;100.00;98124.52;129925;1259;114722;-61
2023/10/21 02:49:53;;;;;;;49.40;28.50;;;;;;;11.42;100.00;98115.38;129965;1262;115080;-61
2023/10/21 02:52:55;;;;;;;49.60;28.20;;;;;;;11.40;100.00;98122.30;129694;1261;114857;-61
2023/10/21 02:55:57;;;;;;;49.70;27.50;;;;;;;11.39;100.00;98126.52;129781;1270;114871;-61
2023/10/21 02:58:59;;;;;;;47.50;26.90;;;;;;;11.38;100.00;98126.94;129984;1270;114881;-62
2023/10/21 03:02:01;;;;;;;42.20;25.40;;;;;;;11.37;100.00;98120.05;129608;1261;115227;-62
2023/10/21 03:05:05;;;;;;;49.60;26.80;;;;;;;11.34;100.00;98105.48;129951;1261;114748;-62
2023/10/21 03:08:07;;;;;;;45.30;26.60;;;;;;;11.31;100.00;98087.58;129818;1259;115319;-62
2023/10/21 03:11:10;;;;;;;46.30;26.60;;;;;;;11.25;100.00;98084.82;129970;1259;114805;-60
2023/10/21 03:14:15;;;;;;;39.30;24.70;;;;;;;11.23;100.00;98101.09;129699;1272;114785;-64
2023/10/21 03:17:17;;;;;;;42.30;23.70;;;;;;;11.24;100.00;98109.41;129816;1261;128758;-63
2023/10/21 03:20:20;;;;;;;40.80;24.70;;;;;;;11.23;100.00;98128.10;129899;1257;114805;-64
2023/10/21 03:23:22;;;;;;;43.50;24.40;;;;;;;11.23;100.00;98129.34;129945;1270;115277;-63
2023/10/21 03:26:24;;;;;;;35.50;24.20;;;;;;;11.23;100.00;98123.09;129933;1260;114851;-62
2023/10/21 03:29:26;;;;;;;37.80;23.40;;;;;;;11.21;100.00;98114.45;127577;1259;3151847;-63
2023/10/21 03:32:28;;;;;;;34.50;21.50;;;;;;;11.18;100.00;98102.27;129928;1256;114869;-65
2023/10/21 03:35:31;;;;;;;35.60;22.40;;;;;;;11.16;100.00;98098.73;129888;1266;114722;-63
2023/10/21 03:38:33;;;;;;;33.50;22.00;;;;;;;11.13;100.00;98106.26;129840;1259;115142;-62
2023/10/21 03:41:36;;;;;;;39.30;23.30;;;;;;;11.12;100.00;98115.29;129929;1256;114692;-63
2023/10/21 03:44:38;;;;;;;33.70;22.60;;;;;;;11.10;100.00;98120.94;129855;1259;115074;-62
2023/10/21 03:47:40;;;;;;;39.00;24.80;;;;;;;11.13;100.00;98133.43;129836;1259;114723;-63
2023/10/21 03:50:43;;;;;;;39.70;22.70;;;;;;;11.14;100.00;98141.69;129801;1271;114743;-63
2023/10/21 03:53:45;;;;;;;37.80;22.10;;;;;;;11.15;100.00;98136.09;129889;1257;116440;-62
2023/10/21 03:56:47;;;;;;;36.60;22.90;;;;;;;11.16;100.00;98140.49;129847;1259;115312;-63
2023/10/21 03:59:50;;;;;;;44.00;24.50;;;;;;;11.15;100.00;98147.20;129797;1260;114817;-62
2023/10/21 04:02:51;;;;;;;36.40;22.50;;;;;;;11.13;100.00;98136.13;129914;1261;114779;-63
2023/10/21 04:05:54;;;;;;;34.80;22.40;;;;;;;11.13;100.00;98131.83;129475;1261;115911;-63
2023/10/21 04:08:56;;;;;;;31.40;22.20;;;;;;;11.13;100.00;98139.34;129892;1259;114794;-63
2023/10/21 04:11:59;;;;;;;38.00;24.50;;;;;;;11.12;100.00;98145.47;129720;1278;114738;-63
2023/10/21 04:15:01;;;;;;;35.80;23.30;;;;;;;11.11;100.00;98148.40;129753;1257;114706;-60
2023/10/21 04:18:04;;;;;;;39.20;24.50;;;;;;;11.10;100.00;98140.07;129728;1267;114784;-62
2023/10/21 04:21:06;;;;;;;39.30;22.50;;;;;;;11.09;100.00;98144.29;129832;1259;114742;-63
2023/10/21 04:24:08;;;;;;;38.80;24.20;;;;;;;11.08;100.00;98134.67;129803;1259;114901;-61
2023/10/21 04:27:11;;;;;;;37.30;24.00;;;;;;;11.07;100.00;98127.88;129782;1278;114843;-63
2023/10/21 04:30:13;;;;;;;34.70;23.30;;;;;;;11.05;100.00;98156.43;129352;1264;114772;-63
2023/10/21 04:33:16;;;;;;;39.20;24.70;;;;;;;11.03;100.00;98178.73;129861;1267;114719;-62
2023/10/21 04:36:18;;;;;;;40.00;24.30;;;;;;;11.03;100.00;98191.83;129738;1267;115135;-60
2023/10/21 04:39:20;;;;;;;40.00;24.20;;;;;;;11.02;100.00;98192.55;129729;1257;114683;-61
2023/10/21 04:42:23;;;;;;;38.30;24.30;;;;;;;11.02;100.00;98195.30;129795;1259;114773;-62
2023/10/21 04:45:26;;;;;;;36.50;24.20;;;;;;;11.03;100.00;98205.04;129720;1271;115142;-63
2023/10/21 04:48:28;;;;;;;41.80;25.40;;;;;;;11.02;100.00;98217.61;129691;1257;114796;-63
2023/10/21 04:51:30;;;;;;;35.20;23.20;;;;;;;11.01;100.00;98220.87;129706;1260;114719;-64
2023/10/21 04:54:32;;;;;;;37.70;25.80;;;;;;;11.02;100.00;98230.30;129702;1278;115424;-62
2023/10/21 04:57:34;;;;;;;39.70;25.00;;;;;;;11.01;100.00;98234.81;130008;1278;114782;-63
2023/10/21 05:00:37;;;;;;;35.60;22.40;;;;;;;11.01;100.00;98250.17;129186;1265;114802;-62
2023/10/21 05:03:39;;;;;;;35.30;24.20;;;;;;;11.01;100.00;98261.06;129852;1278;114712;-61
2023/10/21 05:06:41;;;;;;;40.30;24.30;;;;;;;11.02;100.00;98267.61;129914;1257;114700;-58
2023/10/21 05:09:43;;;;;;;37.50;23.80;;;;;;;11.02;100.00;98255.46;129419;1259;115221;-58
2023/10/21 05:12:45;;;;;;;36.40;23.90;;;;;;;11.01;100.00;98252.02;129820;1259;114697;-63
2023/10/21 05:15:47;;;;;;;37.90;23.50;;;;;;;11.00;100.00;98251.53;130146;1259;114726;-63
2023/10/21 05:18:50;;;;;;;37.30;23.80;;;;;;;11.00;100.00;98243.15;129424;1264;114797;-63
2023/10/21 05:21:52;;;;;;;34.50;24.10;;;;;;;11.00;100.00;98258.61;129888;1259;114721;-62
2023/10/21 05:24:55;;;;;;;36.40;23.60;;;;;;;11.02;100.00;98283.50;130005;1256;114853;-58
2023/10/21 05:27:57;;;;;;;32.80;22.70;;;;;;;11.03;100.00;98274.48;129832;1260;128932;-63
2023/10/21 05:31:01;;;;;;;42.90;25.60;;;;;;;11.05;100.00;98268.82;129911;1256;114810;-59
2023/10/21 05:34:03;;;;;;;38.00;24.00;;;;;;;11.06;100.00;98268.37;129988;1270;114786;-62
2023/10/21 05:37:05;;;;;;;39.30;24.80;;;;;;;11.05;100.00;98283.39;129905;1259;114767;-63
2023/10/21 05:40:08;;;;;;;32.90;22.60;;;;;;;11.05;100.00;98307.04;129869;1278;114898;-62
2023/10/21 05:43:10;;;;;;;31.60;21.90;;;;;;;11.05;100.00;98312.92;129949;1278;114821;-60
2023/10/21 05:46:13;;;;;;;35.50;25.00;;;;;;;11.05;100.00;98323.05;129860;1260;114817;-62
2023/10/21 05:49:15;;;;;;;31.30;22.70;;;;;;;11.05;100.00;98328.23;129799;1259;114798;-59
2023/10/21 05:52:17;;;;;;;38.90;23.90;;;;;;;11.06;100.00;98328.04;129952;1259;114771;-65
2023/10/21 05:55:19;;;;;;;35.60;24.20;;;;;;;11.05;100.00;98333.94;129549;1264;114832;-65
2023/10/21 05:58:22;;;;;;;37.70;25.20;;;;;;;11.07;100.00;98349.02;130001;1272;114687;-64
2023/10/21 06:01:26;;;;;;;36.40;24.70;;;;;;;11.08;100.00;98353.38;130092;1260;114746;-64
2023/10/21 06:04:31;;;;;;;38.70;25.20;;;;;;;11.09;100.00;98358.29;130051;1278;114779;-64
2023/10/21 06:07:33;;;;;;;39.90;24.80;;;;;;;11.12;100.00;98365.20;129625;1265;114761;-63
2023/10/21 06:10:36;;;;;;;41.10;24.70;;;;;;;11.15;100.00;98360.17;129925;1278;114869;-62
2023/10/21 06:13:38;;;;;;;35.80;23.90;;;;;;;11.16;100.00;98360.21;129694;1260;114892;-64
2023/10/21 06:16:41;;;;;;;44.20;25.20;;;;;;;11.20;100.00;98370.83;129993;1256;114723;-64
2023/10/21 06:19:46;;;;;;;33.50;23.60;;;;;;;11.21;100.00;98375.87;129846;1271;114715;-63
2023/10/21 06:22:48;;;;;;;;;;;;;;;11.24;100.00;98381.73;129941;1257;128842;-64
2023/10/21 06:25:51;;;;;;;41.50;25.60;;;;;;;11.27;100.00;98383.80;129896;1259;114763;-64
2023/10/21 06:28:53;;;;;;;39.10;24.00;;;;;;;11.29;100.00;98385.64;129944;1259;114722;-61
2023/10/21 06:31:55;;;;;;;40.20;22.00;;;;;;;11.31;100.00;98391.15;129946;1259;114722;-63
2023/10/21 06:34:59;;;;;;;39.50;23.50;;;;;;;11.34;100.00;98400.38;129997;1260;114698;-62
2023/10/21 06:38:01;;;;;;;39.20;24.00;;;;;;;11.37;100.00;98404.27;129580;1278;114709;-62
2023/10/21 06:41:03;;;;;;;40.70;24.30;;;;;;;11.40;100.00;98415.60;129813;1261;114805;-65
2023/10/21 06:44:06;;;;;;;41.40;25.40;;;;;;;11.43;100.00;98427.89;129850;1259;114724;-61
2023/10/21 06:47:08;;;;;;;43.10;25.00;;;;;;;11.45;100.00;98426.07;129930;1260;115177;-64
2023/10/21 06:50:11;;;;;;;44.40;27.40;;;;;;;11.46;100.00;98426.88;129719;1263;115331;-64
2023/10/21 06:53:14;;;;;;;36.60;24.80;;;;;;;11.51;100.00;98430.29;129683;1263;114749;-64
2023/10/21 06:56:16;;;;;;;40.00;26.70;;;;;;;11.57;100.00;98438.73;129549;1281;115000;-63
2023/10/21 06:59:18;;;;;;;37.30;25.20;;;;;;;11.66;100.00;98448.48;129552;1262;114878;-63
2023/10/21 07:02:20;;;;;;;42.60;25.80;;;;;;;11.74;100.00;98444.45;129650;1263;128628;-63
2023/10/21 07:05:23;;;;;;;45.40;28.00;;;;;;;11.81;100.00;98451.31;129569;1262;114836;-63
2023/10/21 07:08:25;;;;;;;42.00;27.00;;;;;;;11.89;100.00;98459.95;129682;1264;114936;-63
2023/10/21 07:11:27;;;;;;;44.00;25.90;;;;;;;11.98;100.00;98468.93;129540;1257;114754;-62
2023/10/21 07:14:30;;;;;;;39.40;25.30;;;;;;;12.05;100.00;98470.26;129530;1262;114818;-65
2023/10/21 07:17:32;;;;;;;40.00;26.70;;;;;;;12.13;100.00;98478.42;129682;1274;114784;-62
2023/10/21 07:20:36;;;;;;;41.90;27.10;;;;;;;12.21;100.00;98492.26;129669;1257;115163;-61
2023/10/21 07:23:38;;;;;;;40.90;27.60;;;;;;;12.30;100.00;98493.72;129780;1260;115291;-59
2023/10/21 07:26:41;;;;;;;37.90;26.50;;;;;;;12.44;100.00;98500.48;129808;1260;115389;-62
2023/10/21 07:29:45;;;;;;;36.00;25.00;;;;;;;12.59;100.00;98507.61;129883;1260;114803;-63
2023/10/21 07:32:48;;;;;;;36.60;24.50;;;;;;;12.74;100.00;98510.19;129726;1279;114841;-62
2023/10/21 07:35:51;;;;;;;35.50;24.80;;;;;;;12.85;100.00;98514.25;129769;1256;114782;-63
2023/10/21 07:38:53;;;;;;;35.30;24.50;;;;;;;12.97;100.00;98511.49;129631;1260;114721;-63
2023/10/21 07:41:59;;;;;;;36.00;25.40;;;;;;;13.13;100.00;98510.95;129772;1257;114743;-63
2023/10/21 07:45:03;;;;;;;35.20;24.70;;;;;;;13.30;100.00;98523.23;129657;1263;114965;-64
2023/10/21 07:48:07;;;;;;;34.90;25.40;;;;;;;13.57;100.00;98531.23;129906;1259;114827;-61
2023/10/21 07:51:09;;;;;;;33.60;24.30;;;;;;;13.88;100.00;98530.48;129928;1257;114639;-62
2023/10/21 07:54:12;;;;;;;27.90;21.50;;;;;;;13.97;100.00;98534.23;129722;1256;114741;-62
2023/10/21 07:57:14;;;;;;;27.70;21.90;;;;;;;14.05;100.00;98542.00;129842;1259;114780;-58
2023/10/21 08:00:19;;;;;;;31.10;23.90;;;;;;;14.09;100.00;98546.08;130055;1272;114728;-63
2023/10/21 08:03:21;;;;;;;28.80;21.10;;;;;;;14.09;100.00;98555.06;129738;1257;114859;-63
2023/10/21 08:06:25;;;;;;;30.60;23.50;;;;;;;14.09;100.00;98560.08;129726;1261;114780;-62
2023/10/21 08:09:27;;;;;;;42.60;27.50;;;;;;;14.14;100.00;98568.25;129910;1257;115193;-63
2023/10/21 08:12:29;;;;;;;39.90;27.60;;;;;;;14.20;100.00;98570.21;130006;1261;114696;-63
2023/10/21 08:15:31;;;;;;;36.30;26.90;;;;;;;14.29;100.00;98569.41;129994;1272;129144;-60
2023/10/21 08:18:34;;;;;;;35.20;26.30;;;;;;;14.36;100.00;98575.89;129990;1259;115200;-59
2023/10/21 08:21:36;;;;;;;36.70;27.00;;;;;;;14.41;100.00;98584.09;130107;1256;114762;-62
2023/10/21 08:24:39;;;;;;;33.20;26.50;;;;;;;14.48;100.00;98585.27;129999;1255;114914;-59
2023/10/21 08:27:41;;;;;;;36.10;27.40;;;;;;;14.55;100.00;98590.31;129770;1264;114842;-60
2023/10/21 08:30:44;;;;;;;34.40;25.60;;;;;;;14.63;100.00;98600.96;130085;1256;114734;-58
2023/10/21 08:33:46;;;;;;;37.50;26.90;;;;;;;14.67;100.00;98610.48;130039;1259;114705;-60
2023/10/21 08:36:49;;;;;;;36.90;26.30;;;;;;;14.74;100.00;98605.11;130006;1272;114798;-63
2023/10/21 08:39:52;;;;;;;35.20;25.80;;;;;;;14.82;100.00;98607.99;129963;1257;114795;-62
2023/10/21 08:42:54;;;;;;;35.90;26.40;;;;;;;14.92;100.00;98613.14;129984;1271;114700;-61
2023/10/21 08:45:57;;;;;;;35.90;24.80;;;;;;;15.04;100.00;98622.27;129959;1278;114712;-63
2023/10/21 08:49:03;;;;;;;34.00;25.80;;;;;;;15.15;100.00;98623.94;129783;1255;114798;-64
2023/10/21 08:52:10;;;;;;;33.90;25.90;;;;;;;15.29;100.00;98631.05;129775;1265;114712;-63
2023/10/21 08:55:12;;;;;;;34.40;24.70;;;;;;;15.48;100.00;98638.38;129969;1259;128914;-63
2023/10/21 08:58:15;;;;;;;37.40;25.80;;;;;;;15.69;100.00;98639.95;129958;1278;114842;-63
2023/10/21 09:01:18;;;;;;;35.70;26.00;;;;;;;15.84;100.00;98647.94;129884;1259;114899;-64
2023/10/21 09:04:22;;;;;;;33.80;25.00;;;;;;;15.95;100.00;98651.66;130080;1259;114710;-62
2023/10/21 09:07:24;;;;;;;34.10;24.10;;;;;;;16.04;100.00;98656.21;129969;1277;115088;-63
2023/10/21 09:10:26;;;;;;;31.00;24.40;;;;;;;16.12;100.00;98662.25;129842;1257;114697;-63
2023/10/21 09:13:30;;;;;;;30.10;23.80;;;;;;;16.23;100.00;98659.79;130052;1267;128064;-65
2023/10/21 09:16:32;;;;;;;41.50;24.30;;;;;;;16.32;100.00;98657.02;129981;1270;115145;-62
2023/10/21 09:19:34;;;;;;;37.20;25.30;;;;;;;16.41;100.00;98657.64;129947;1258;115161;-63
2023/10/21 09:22:37;;;;;;;30.60;24.70;;;;;;;16.48;100.00;98660.30;129962;1259;114889;-63
2023/10/21 09:25:39;;;;;;;34.80;24.30;;;;;;;16.54;100.00;98655.39;130039;1272;114927;-61
2023/10/21 09:28:41;;;;;;;32.20;24.80;;;;;;;16.58;100.00;98657.17;130013;1258;115225;-65
2023/10/21 09:31:52;;;;;;;33.70;24.00;;;;;;;16.66;100.00;98661.27;130020;1259;114845;-64
2023/10/21 09:35:12;;;;;;;32.80;26.70;;;;;;;16.72;100.00;98663.84;129671;1263;127831;-64
2023/10/21 09:38:16;;;;;;;34.60;25.10;;;;;;;16.82;100.00;98670.83;129776;1263;115339;-62
2023/10/21 09:41:19;;;;;;;33.10;25.50;;;;;;;16.89;100.00;98668.31;129724;1256;115430;-61
2023/10/21 09:44:21;;;;;;;32.70;24.60;;;;;;;16.93;100.00;98667.33;129729;1260;115287;-64
2023/10/21 09:47:23;;;;;;;34.70;24.20;;;;;;;16.98;99.91;98669.28;129772;1260;114711;-62
2023/10/21 09:50:26;;;;;;;37.70;26.70;;;;;;;17.02;99.74;98667.15;129873;1260;114843;-60
2023/10/21 09:53:38;;;;;;;31.40;24.60;;;;;;;17.09;99.69;98670.65;129793;1275;128816;-62
2023/10/21 09:56:42;;;;;;;33.50;24.40;;;;;;;17.15;99.72;98671.27;129420;1262;116354;-60
2023/10/21 09:59:46;;;;;;;32.30;24.60;;;;;;;17.22;99.88;98671.64;129456;1268;114837;-63
2023/10/21 10:02:50;;;;;;;27.70;18.20;;;;;;;17.26;99.19;98675.86;129488;1261;114834;-60
2023/10/21 10:05:52;;;;;;;35.40;23.80;;;;;;;17.29;98.94;98680.86;129570;1280;114878;-65
2023/10/21 10:08:54;;;;;;;31.90;22.20;;;;;;;17.34;99.13;98686.79;129651;1261;115274;-63
2023/10/21 10:12:01;;;;;;;28.20;22.70;;;;;;;17.39;98.61;98682.88;129682;1257;114866;-62
2023/10/21 10:15:30;;;;;;;30.80;22.00;;;;;;;17.43;98.65;98682.46;129652;1261;114815;-58
2023/10/21 10:18:46;;;;;;;30.90;23.80;;;;;;;17.50;98.76;98692.05;129337;1259;115386;-60
2023/10/21 10:21:52;;;;;;;30.90;23.50;;;;;;;17.54;98.63;98697.89;129581;1259;115337;-62
2023/10/21 10:24:58;;;;;;;29.80;20.20;;;;;;;17.61;98.83;98699.86;129664;1259;128812;-57
2023/10/21 10:28:04;;;;;;;28.40;20.00;;;;;;;17.67;98.63;98711.87;129671;1259;114692;-57
2023/10/21 10:31:07;;;;;;;28.40;20.20;;;;;;;17.73;98.57;98708.38;129733;1261;115616;-57
2023/10/21 10:34:10;;;;;;;31.00;19.90;;;;;;;17.79;98.51;98705.26;129672;1266;114814;-59
2023/10/21 10:37:30;;;;;;;27.90;19.30;;;;;;;17.85;97.96;98702.79;129666;1261;114725;-59
2023/10/21 10:40:40;;;;;;;25.60;19.30;;;;;;;17.87;97.63;98706.02;129827;1259;127574;-59
2023/10/21 10:43:55;;;;;;;27.60;18.80;;;;;;;17.91;97.29;98713.94;129982;1272;115975;-60
2023/10/21 10:46:57;;;;;;;28.20;19.80;;;;;;;17.94;97.32;98718.66;129685;1266;114901;-59
2023/10/21 10:50:00;;;;;;;30.50;19.40;;;;;;;17.97;97.31;98715.08;129794;1278;114789;-60
2023/10/21 10:53:20;;;;;;;25.90;20.40;;;;;;;18.01;97.36;98715.05;129987;1275;115137;-59
2023/10/21 10:56:27;;;;;;;24.70;18.50;;;;;;;18.06;97.15;98723.48;129874;1259;128870;-61
2023/10/21 10:59:31;;;;;;;20.20;16.20;;;;;;;18.10;96.86;98736.20;129849;1259;115237;-60
2023/10/21 11:02:43;;;;;;;24.80;17.50;;;;;;;18.12;96.27;98744.28;129785;1259;114905;-60
2023/10/21 11:05:45;;;;;;;22.60;17.40;;;;;;;18.15;96.27;98749.67;130033;1278;115273;-59
2023/10/21 11:08:47;;;;;;;21.10;16.20;;;;;;;18.19;95.93;98748.08;129811;1257;115297;-57
2023/10/21 11:11:54;;;;;;;;;;;;;;;18.23;96.01;98745.84;129703;1259;128517;-61
2023/10/21 11:14:57;;;;;;;14.30;10.40;;;;;;;18.26;96.00;98750.36;130024;1257;115231;-62
2023/10/21 11:18:00;;;;;;;18.40;14.70;;;;;;;18.31;95.85;98754.27;129942;1259;114735;-59
2023/10/21 11:21:04;;;;;;;20.20;13.60;;;;;;;18.37;95.58;98762.73;129690;1264;116250;-62
2023/10/21 11:24:08;;;;;;;18.60;15.40;;;;;;;18.43;95.37;98762.15;130072;1259;114638;-59
2023/10/21 11:27:10;;;;;;;22.00;14.80;;;;;;;18.46;94.91;98759.60;129962;1259;114719;-61
2023/10/21 11:30:13;;;;;;;19.80;13.70;;;;;;;18.50;94.90;98760.39;130136;1256;114814;-62
2023/10/21 11:33:16;;;;;;;21.40;14.70;;;;;;;18.56;94.78;98762.73;129835;1259;114826;-57
2023/10/21 11:36:18;;;;;;;20.40;15.70;;;;;;;18.63;94.59;98771.58;130135;1256;114761;-59
2023/10/21 11:39:21;;;;;;;19.90;15.30;;;;;;;18.67;93.77;98777.61;129914;1261;114893;-60
2023/10/21 11:42:28;;;;;;;20.50;15.40;;;;;;;18.68;93.23;98779.45;129931;1259;114784;-58
2023/10/21 11:45:31;;;;;;;17.10;13.40;;;;;;;18.71;93.07;98784.95;130048;1259;114809;-58
2023/10/21 11:48:37;;;;;;;19.40;14.40;;;;;;;18.75;93.10;98784.33;130067;1270;114715;-58
2023/10/21 11:51:46;;;;;;;21.40;15.00;;;;;;;18.81;92.97;98783.01;129971;1259;114708;-58
2023/10/21 12:02:55;;;;;;;21.90;14.80;;;;;;;18.94;91.99;98787.94;130010;1275;129010;-66
2023/10/21 12:40:35;;;;;;;19.20;11.20;;;;;;;19.30;90.23;98824.61;129802;1272;114698;-67
2023/10/21 12:43:38;;;;;;;15.50;11.50;;;;;;;19.35;90.35;98827.36;129703;1260;114771;-62
2023/10/21 12:46:42;;;;;;;20.60;11.30;;;;;;;19.40;90.42;98833.40;130039;1259;115393;-67
2023/10/21 12:49:47;;;;;;;13.70;10.60;;;;;;;19.47;90.16;98839.38;129958;1259;127799;-66
2023/10/21 12:52:49;;;;;;;14.80;10.70;;;;;;;19.53;89.75;98845.30;129855;1257;115183;-64
2023/10/21 12:55:52;;;;;;;10.70;9.50;;;;;;;19.59;89.67;98850.51;130140;1259;115209;-62
2023/10/21 12:58:54;;;;;;;14.10;10.20;;;;;;;19.66;89.42;98852.55;130064;1259;114678;-65
2023/10/21 13:01:56;;;;;;;15.80;11.30;;;;;;;19.70;89.25;98856.70;129926;1278;114725;-62
2023/10/21 13:05:00;;;;;;;12.50;9.30;;;;;;;19.74;89.20;98864.05;129979;1257;114748;-60
2023/10/21 13:08:07;;;;;;;14.50;7.50;;;;;;;19.75;88.54;98863.48;129855;1278;129674;-65
2023/10/21 13:11:11;;;;;;;8.50;5.10;;;;;;;19.74;87.74;98869.21;129905;1259;116371;-63
2023/10/21 13:14:13;;;;;;;9.60;5.50;;;;;;;19.72;86.66;98871.98;130018;1260;114717;-62
2023/10/21 13:17:15;;;;;;;5.40;4.90;;;;;;;19.70;86.11;98871.59;129489;1257;115087;-63
2023/10/21 13:20:17;;;;;;;6.10;4.80;;;;;;;19.69;85.27;98867.56;129845;1259;114724;-68
2023/10/21 13:23:19;;;;;;;5.60;4.70;;;;;;;19.66;84.99;98864.23;129482;1278;114782;-62
2023/10/21 13:26:22;;;;;;;7.00;5.30;;;;;;;19.63;84.74;98865.66;129669;1278;114773;-66
2023/10/21 13:29:25;;;;;;;9.60;6.30;;;;;;;19.60;84.35;98866.95;129914;1259;114748;-66
2023/10/21 13:32:28;;;;;;;14.50;10.50;;;;;;;19.56;84.42;98863.69;129817;1271;114709;-65
2023/10/21 13:35:34;;;;;;;;;;;;;;;19.55;84.04;98872.59;129789;1261;114743;-65
2023/10/21 13:38:36;;;;;;;10.20;5.20;;;;;;;19.51;83.15;98878.64;129823;1276;114698;-67
2023/10/21 13:41:38;;;;;;;8.20;5.40;;;;;;;19.49;82.69;98881.00;129752;1278;114824;-67
2023/10/21 13:44:40;;;;;;;6.60;4.60;;;;;;;19.47;82.17;98879.07;129873;1256;114735;-63
2023/10/21 13:47:43;;;;;;;8.20;4.80;;;;;;;19.44;81.32;98880.41;129680;1256;127864;-66
2023/10/21 13:50:48;;;;;;;7.50;3.60;;;;;;;19.41;80.96;98877.30;129795;1257;114739;-66
2023/10/21 13:53:52;;;;;;;6.40;5.20;;;;;;;19.40;80.67;98870.38;129638;1265;115075;-65
2023/10/21 13:56:54;;;;;;;8.50;6.10;;;;;;;19.40;80.82;98871.97;129875;1259;114742;-62
2023/10/21 13:59:57;;;;;;;13.00;9.20;;;;;;;19.38;80.50;98880.32;129957;1259;114716;-66
2023/10/21 14:03:11;;;;;;;10.30;8.80;;;;;;;19.36;80.18;98883.34;129788;1268;115031;-66
2023/10/21 14:06:13;;;;;;;10.00;6.60;;;;;;;19.33;80.18;98891.98;129788;1278;128882;-64
2023/10/21 14:09:23;;;;;;;8.60;5.80;;;;;;;19.29;80.19;98895.85;129764;1259;115222;-65
2023/10/21 14:12:26;;;;;;;24.60;16.50;;;;;;;19.25;80.17;98894.66;129841;1261;115110;-65
2023/10/21 14:15:28;;;;;;;6.70;5.40;;;;;;;19.20;80.34;98898.05;129872;1259;115215;-68
2023/10/21 14:18:32;;;;;;;7.70;6.10;;;;;;;19.16;80.44;98900.32;129791;1256;115219;-67
2023/10/21 14:21:37;;;;;;;7.60;5.80;;;;;;;19.11;80.53;98901.48;129981;1269;114713;-67